Radiosonde details



Informationen :

Serial : X3123554
Type : RS41-SGE
Frequency : 403.000MHz
Launchsite : Keflavikurflugvollur
Nearest town : Grindavík, IS (6.8km)

Altitude (Max) : 25825m at 2026-08-31 12:20:36
Speed (Max) : 87km/h at altitude 9094m

Average speed : 28km/h
Average ascent rate : 5m/s
Average descent rate : -14m/s
Ascent rate (Max) : 8.8m/s
Descent rate (Max): -25.3m/s

First frame :
DL9RDZ-2 at 2026-08-31 11:05:26 at altitude 1284m (OG: 1242m)
Last frame :
DL9RDZ-1 at 2026-08-31 12:49:44 at altitude 1016m (OG: 974m)

Flighttime : 1h44m18s
Ascent time : 1h15m10s
Descent time : 29m8s
Uptime : -
Killtimer : 8h02m

Distance (Straight line distance): 18km

Distance (Route):


Frames : 462


Measurement :

Temperature : 3.3°C
Humidity : 72.2%
Pressure : 0hPa


Vertical profile (SkewT) :


Elevation profile :



Receiving stations :


Receiver Frames First received Last received
DL9RDZ-1 462 2026-08-31 11:05:26 2026-08-31 12:49:44

Share per receiver :



All frames :


Receiver Date Latitude Longitude Direction Speed Altitude Climb Temperature Humidity Pressure Voltage Killtimer Uptime BKT XDATA
DL9RDZ-12026-08-31 12:49:4463.88207-22.34137289°29km/h1016m-10.0m/s3.3°C72.2%0hPa0V08:02:0000:00:0000:00:00
DL9RDZ-12026-08-31 12:49:3363.88181-22.33964290°27km/h1126m-10.0m/s2.5°C69.3%0hPa0V00:00:0000:00:0000:00:00
DL9RDZ-12026-08-31 12:49:2363.88164-22.33812279°27km/h1223m-9.7m/s1.6°C73.6%0hPa0V00:00:0000:00:0000:00:00
DL9RDZ-12026-08-31 12:49:1363.88153-22.33656280°29km/h1322m-11.0m/s0.6°C77.6%0hPa0V00:00:0000:00:0000:00:00
DL9RDZ-12026-08-31 12:49:0263.88145-22.33488277°27km/h1425m-8.9m/s-0.3°C80.9%0hPa0V00:00:0000:00:0000:00:00
DL9RDZ-12026-08-31 12:48:4263.88155-22.33213261°26km/h1624m-10.6m/s-1.7°C78.2%0hPa0V08:03:0000:00:0000:00:00
DL9RDZ-12026-08-31 12:48:3263.88173-22.33072249°26km/h1716m-10.5m/s-2.2°C75.3%0hPa0V08:03:0000:00:0000:00:00
DL9RDZ-12026-08-31 12:48:2263.88204-22.32938240°26km/h1814m-10.5m/s-3.0°C79.1%0hPa0V08:03:0000:00:0000:00:00
DL9RDZ-12026-08-31 12:48:1163.88242-22.32808238°24km/h1917m-9.5m/s-3.6°C80.2%0hPa0V08:03:0000:00:0000:00:00
DL9RDZ-12026-08-31 12:48:0163.88273-22.32690245°24km/h2008m-9.0m/s-4.0°C84.1%0hPa0V08:03:0000:00:0000:00:00
DL9RDZ-12026-08-31 12:47:5163.88293-22.32568261°20km/h2108m-9.2m/s-4.7°C87.4%0hPa0V08:04:0000:00:0000:00:00
DL9RDZ-12026-08-31 12:47:4063.88298-22.32456268°18km/h2197m-9.8m/s-4.9°C85.8%0hPa0V08:04:0000:00:0000:00:00
DL9RDZ-12026-08-31 12:47:1663.88318-22.32162255°22km/h2417m-10.4m/s-6.0°C75.6%0hPa0V08:04:0000:00:0000:00:00
DL9RDZ-12026-08-31 12:47:0563.88337-22.32027255°22km/h2523m-10.8m/s-6.9°C78.3%0hPa0V08:05:0000:00:0000:00:00
DL9RDZ-12026-08-31 12:46:5563.88354-22.31898252°22km/h2629m-10.5m/s-7.8°C79.9%0hPa0V08:05:0000:00:0000:00:00
DL9RDZ-12026-08-31 12:46:4363.88375-22.31782247°20km/h2740m-11.5m/s-8.9°C83.3%0hPa0V08:05:0000:00:0000:00:00
DL9RDZ-12026-08-31 12:46:3363.88399-22.31681245°20km/h2847m-11.3m/s-9.7°C85.1%0hPa0V08:05:0000:00:0000:00:00
DL9RDZ-12026-08-31 12:46:2263.88426-22.31572245°18km/h2957m-10.8m/s-10.2°C77.2%0hPa0V08:05:0000:00:0000:00:00
DL9RDZ-12026-08-31 12:46:1363.88443-22.31487248°15km/h3059m-10.7m/s-10.8°C80.6%0hPa0V00:00:0000:00:0000:00:00
DL9RDZ-12026-08-31 12:46:0163.88454-22.31395259°16km/h3172m-11.3m/s-10.6°C59.6%0hPa0V00:00:0000:00:0000:00:00
DL9RDZ-12026-08-31 12:45:5063.88467-22.31306258°15km/h3286m-10.8m/s-11.2°C64.6%0hPa0V00:00:0000:00:0000:00:00
DL9RDZ-12026-08-31 12:45:4063.88478-22.31231256°13km/h3393m-11.5m/s-11.8°C56.9%0hPa0V00:00:0000:00:0000:00:00
DL9RDZ-12026-08-31 12:45:2963.88488-22.31145255°15km/h3510m-10.5m/s-12.9°C56.8%0hPa0V00:00:0000:00:0000:00:00
DL9RDZ-12026-08-31 12:44:2063.88627-22.30706183°15km/h4251m-11.1m/s-18.5°C58.3%0hPa0V08:08:0000:00:0000:00:00
DL9RDZ-12026-08-31 12:44:0963.88664-22.30734150°13km/h4373m-13.1m/s-19.3°C75.4%0hPa0V08:08:0000:00:0000:00:00
DL9RDZ-12026-08-31 12:43:5863.88697-22.30775159°15km/h4492m-11.5m/s-20.4°C74.4%0hPa0V08:08:0000:00:0000:00:00
DL9RDZ-12026-08-31 12:43:4763.88731-22.30789169°11km/h4609m-11.4m/s-20.8°C34.5%0hPa0V08:08:0000:00:0000:00:00
DL9RDZ-12026-08-31 12:43:3663.88760-22.30797162°9km/h4730m-12.2m/s-21.7°C35.1%0hPa0V08:09:0000:00:0000:00:00
DL9RDZ-12026-08-31 12:43:2763.88780-22.30813151°9km/h4845m-12.0m/s-22.7°C35.2%0hPa0V08:09:0000:00:0000:00:00
DL9RDZ-12026-08-31 12:43:1663.88800-22.30838141°9km/h4957m-12.2m/s-23.2°C39.9%0hPa0V08:09:0000:00:0000:00:00
DL9RDZ-12026-08-31 12:43:0563.88824-22.30880153°11km/h5079m-11.9m/s-24.3°C44.0%0hPa0V08:09:0000:00:0000:00:00
DL9RDZ-12026-08-31 12:42:5463.88850-22.30920136°11km/h5202m-12.2m/s-25.2°C45.0%0hPa0V08:09:0000:00:0000:00:00
DL9RDZ-12026-08-31 12:42:4463.88866-22.30964119°9km/h5318m-10.4m/s-26.1°C43.7%0hPa0V08:09:0000:00:0000:00:00
DL9RDZ-12026-08-31 12:42:3463.88875-22.3101498°11km/h5427m-12.0m/s-26.7°C38.9%0hPa0V08:09:0000:00:0000:00:00
DL9RDZ-12026-08-31 12:42:2363.88877-22.3109593°15km/h5553m-11.6m/s-27.3°C35.5%0hPa0V08:09:0000:00:0000:00:00
DL9RDZ-12026-08-31 12:42:1263.88874-22.3119978°18km/h5679m-12.3m/s-28.3°C38.9%0hPa0V08:09:0000:00:0000:00:00
DL9RDZ-12026-08-31 12:42:0163.88864-22.3130472°15km/h5804m-12.6m/s-29.3°C30.7%0hPa0V08:10:0000:00:0000:00:00
DL9RDZ-12026-08-31 12:41:5063.88847-22.3140769°16km/h5933m-12.1m/s-30.4°C32.5%0hPa0V08:10:0000:00:0000:00:00
DL9RDZ-12026-08-31 12:41:3963.88828-22.3151059°16km/h6060m-11.1m/s-31.6°C35.0%0hPa0V08:10:0000:00:0000:00:00
DL9RDZ-12026-08-31 12:41:2963.88810-22.3159860°15km/h6176m-12.6m/s-32.6°C36.2%0hPa0V08:10:0000:00:0000:00:00
DL9RDZ-12026-08-31 12:41:1863.88790-22.3168470°15km/h6306m-12.5m/s-33.8°C45.0%0hPa0V08:10:0000:00:0000:00:00
DL9RDZ-12026-08-31 12:41:0763.88778-22.3176870°15km/h6435m-12.9m/s-35.0°C52.8%0hPa0V08:11:0000:00:0000:00:00
DL9RDZ-12026-08-31 12:40:5763.88772-22.3183994°13km/h6552m-11.7m/s-36.0°C53.5%0hPa0V08:11:0000:00:0000:00:00
DL9RDZ-12026-08-31 12:40:4663.88781-22.31913110°13km/h6687m-12.6m/s-37.0°C48.9%0hPa0V08:11:0000:00:0000:00:00
DL9RDZ-12026-08-31 12:40:3563.88803-22.31991129°18km/h6817m-12.3m/s-37.7°C38.3%0hPa0V08:11:0000:00:0000:00:00
DL9RDZ-12026-08-31 12:40:2563.88837-22.32056144°20km/h6935m-12.4m/s-38.4°C30.8%0hPa0V08:11:0000:00:0000:00:00
DL9RDZ-12026-08-31 12:40:1463.88889-22.32104172°20km/h7058m-12.2m/s-39.1°C21.6%0hPa0V08:12:0000:00:0000:00:00
DL9RDZ-12026-08-31 12:40:0463.88957-22.32108184°29km/h7173m-12.2m/s-39.6°C22.2%0hPa0V08:12:0000:00:0000:00:00
DL9RDZ-12026-08-31 12:39:5463.89039-22.32084191°35km/h7292m-12.7m/s-40.4°C25.2%0hPa0V08:12:0000:00:0000:00:00
DL9RDZ-12026-08-31 12:39:4363.89147-22.32040193°42km/h7424m-12.0m/s-41.1°C25.6%0hPa0V08:12:0000:00:0000:00:00
DL9RDZ-12026-08-31 12:39:3463.89263-22.31989191°51km/h7545m-13.2m/s-41.7°C25.5%0hPa0V08:12:0000:00:0000:00:00
DL9RDZ-12026-08-31 12:39:2263.89406-22.31918193°51km/h7680m-13.8m/s-42.5°C31.6%0hPa0V08:13:0000:00:0000:00:00
DL9RDZ-12026-08-31 12:39:1163.89551-22.31861190°55km/h7814m-12.0m/s-43.2°C34.1%0hPa0V08:13:0000:00:0000:00:00
DL9RDZ-12026-08-31 12:39:0163.89690-22.31818189°55km/h7934m-13.4m/s-43.9°C30.7%0hPa0V08:13:0000:00:0000:00:00
DL9RDZ-12026-08-31 12:38:5063.89854-22.31769190°62km/h8067m-12.6m/s-44.5°C29.1%0hPa0V08:13:0000:00:0000:00:00
DL9RDZ-12026-08-31 12:38:2963.90196-22.31635192°68km/h8326m-13.0m/s-45.8°C33.8%0hPa0V08:14:0000:00:0000:00:00
DL9RDZ-12026-08-31 12:38:1863.90389-22.31540194°71km/h8468m-13.3m/s-46.4°C43.2%0hPa0V08:14:0000:00:0000:00:00
DL9RDZ-12026-08-31 12:38:0763.90582-22.31437195°71km/h8607m-13.8m/s-46.9°C39.2%0hPa0V08:14:0000:00:0000:00:00
DL9RDZ-12026-08-31 12:37:5763.90758-22.31338194°73km/h8739m-14.0m/s-47.6°C41.9%0hPa0V08:14:0000:00:0000:00:00
DL9RDZ-12026-08-31 12:37:4663.90956-22.31234194°71km/h8884m-13.4m/s-48.7°C41.2%0hPa0V08:15:0000:00:0000:00:00
DL9RDZ-12026-08-31 12:37:3663.91133-22.31147192°71km/h9021m-15.0m/s-49.5°C38.7%0hPa0V08:15:0000:00:0000:00:00
DL9RDZ-12026-08-31 12:37:2563.91329-22.31047194°71km/h9177m-15.3m/s-50.5°C38.2%0hPa0V08:15:0000:00:0000:00:00
DL9RDZ-12026-08-31 12:37:1563.91499-22.30949197°69km/h9317m-14.8m/s-51.5°C38.7%0hPa0V08:15:0000:00:0000:00:00
DL9RDZ-12026-08-31 12:37:0563.91659-22.30868193°62km/h9447m-13.7m/s-52.1°C32.1%0hPa0V08:15:0000:00:0000:00:00
DL9RDZ-12026-08-31 12:36:5563.91829-22.30809188°62km/h9598m-14.5m/s-52.1°C25.1%0hPa0V08:15:0000:00:0000:00:00
DL9RDZ-12026-08-31 12:36:3363.92110-22.30745188°38km/h9878m-13.6m/s-51.1°C8.9%0hPa0V08:15:0000:00:0000:00:00
DL9RDZ-12026-08-31 12:36:2363.92201-22.30744177°35km/h10008m-13.3m/s-51.0°C6.3%0hPa0V08:15:0000:00:0000:00:00
DL9RDZ-12026-08-31 12:36:1363.92282-22.30763166°29km/h10145m-13.4m/s-49.3°C4.3%0hPa0V08:15:0000:00:0000:00:00
DL9RDZ-12026-08-31 12:36:0263.92360-22.30845154°35km/h10294m-13.4m/s-48.6°C3.2%0hPa0V08:16:0000:00:0000:00:00
DL9RDZ-12026-08-31 12:35:5263.92434-22.30908168°27km/h10429m-14.7m/s-47.4°C2.3%0hPa0V08:16:0000:00:0000:00:00
DL9RDZ-12026-08-31 12:35:4163.92503-22.30954157°26km/h10578m-13.4m/s-46.9°C2.1%0hPa0V08:16:0000:00:0000:00:00
DL9RDZ-12026-08-31 12:35:2063.92610-22.31112136°22km/h10865m-14.4m/s-44.8°C1.6%0hPa0V08:16:0000:00:0000:00:00
DL9RDZ-12026-08-31 12:35:0963.92645-22.31223128°24km/h11015m-14.1m/s-44.4°C1.3%0hPa0V08:17:0000:00:0000:00:00
DL9RDZ-12026-08-31 12:34:5963.92676-22.31302138°15km/h11154m-12.8m/s-44.8°C1.3%0hPa0V08:17:0000:00:0000:00:00
DL9RDZ-12026-08-31 12:34:4963.92697-22.31356113°13km/h11292m-13.5m/s-45.0°C1.2%0hPa0V08:17:0000:00:0000:00:00
DL9RDZ-12026-08-31 12:34:3963.92702-22.3143592°16km/h11429m-15.4m/s-45.4°C1.3%0hPa0V08:17:0000:00:0000:00:00
DL9RDZ-12026-08-31 12:34:2163.92716-22.31667102°31km/h11672m-14.4m/s-46.0°C1.3%0hPa0V08:18:0000:00:0000:00:00
DL9RDZ-12026-08-31 12:34:1163.92732-22.31845101°31km/h11818m-14.9m/s-45.9°C1.4%0hPa0V08:18:0000:00:0000:00:00
DL9RDZ-12026-08-31 12:33:5863.92768-22.32051126°29km/h12001m-14.3m/s-46.2°C1.4%0hPa0V08:18:0000:00:0000:00:00
DL9RDZ-12026-08-31 12:33:4863.92791-22.3219797°27km/h12149m-16.5m/s-44.1°C1.1%0hPa0V08:18:0000:00:0000:00:00
DL9RDZ-12026-08-31 12:33:3763.92795-22.3237695°29km/h12306m-14.5m/s-44.0°C1.0%0hPa0V08:18:0000:00:0000:00:00
DL9RDZ-12026-08-31 12:33:2663.92806-22.3258099°38km/h12465m-15.0m/s-44.4°C1.0%0hPa0V08:19:0000:00:0000:00:00
DL9RDZ-12026-08-31 12:33:1763.92826-22.32792107°35km/h12607m-15.9m/s-44.5°C1.0%0hPa0V08:19:0000:00:0000:00:00
DL9RDZ-12026-08-31 12:33:0663.92847-22.32960100°26km/h12751m-15.5m/s-44.9°C1.0%0hPa0V08:19:0000:00:0000:00:00
DL9RDZ-12026-08-31 12:32:5663.92860-22.33087116°22km/h12894m-14.6m/s-45.3°C1.0%0hPa0V08:19:0000:00:0000:00:00
DL9RDZ-12026-08-31 12:32:4863.92890-22.33189139°20km/h13037m-14.3m/s-45.6°C1.0%0hPa0V08:19:0000:00:0000:00:00
DL9RDZ-12026-08-31 12:32:3563.92917-22.33256105°11km/h13198m-15.2m/s-44.8°C1.0%0hPa0V08:20:0000:00:0000:00:00
DL9RDZ-12026-08-31 12:32:2663.92914-22.3334279°20km/h13347m-13.3m/s-44.3°C0.9%0hPa0V08:20:0000:00:0000:00:00
DL9RDZ-12026-08-31 12:32:1563.92907-22.3347692°29km/h13500m-15.4m/s-44.5°C1.0%0hPa0V08:20:0000:00:0000:00:00
DL9RDZ-12026-08-31 12:32:0463.92915-22.3368194°31km/h13664m-14.3m/s-44.0°C0.9%0hPa0V08:20:0000:00:0000:00:00
DL9RDZ-12026-08-31 12:31:5363.92927-22.33827111°16km/h13827m-15.7m/s-43.7°C0.9%0hPa0V08:20:0000:00:0000:00:00
DL9RDZ-12026-08-31 12:31:3163.92885-22.3393435°26km/h14170m-16.5m/s-44.3°C0.9%0hPa0V08:20:0000:00:0000:00:00
DL9RDZ-12026-08-31 12:31:2063.92819-22.3404847°33km/h14349m-17.8m/s-44.6°C0.9%0hPa0V08:20:0000:00:0000:00:00
DL9RDZ-12026-08-31 12:31:1063.92774-22.3420463°35km/h14517m-19.0m/s-44.9°C0.9%0hPa0V08:20:0000:00:0000:00:00
DL9RDZ-12026-08-31 12:31:0063.92745-22.3438879°31km/h14680m-16.6m/s-44.7°C0.9%0hPa0V08:20:0000:00:0000:00:00
DL9RDZ-12026-08-31 12:30:4963.92749-22.34565106°27km/h14851m-15.6m/s-44.6°C0.8%0hPa0V00:00:0000:00:0000:00:00
DL9RDZ-12026-08-31 12:30:3963.92772-22.34716115°20km/h15027m-16.5m/s-45.0°C0.9%0hPa0V00:00:0000:00:0000:00:00
DL9RDZ-12026-08-31 12:30:2763.92779-22.3482381°18km/h15204m-15.6m/s-45.3°C0.9%0hPa0V00:00:0000:00:0000:00:00
DL9RDZ-12026-08-31 12:30:1763.92752-22.3495060°26km/h15381m-17.3m/s-45.0°C0.8%0hPa0V00:00:0000:00:0000:00:00
DL9RDZ-12026-08-31 12:29:2863.92615-22.3549371°31km/h16177m-16.8m/s-46.4°C0.9%0hPa0V08:22:0000:00:0000:00:00
DL9RDZ-12026-08-31 12:29:1863.92599-22.3568081°26km/h16360m-17.6m/s-45.0°C0.8%0hPa0V08:22:0000:00:0000:00:00
DL9RDZ-12026-08-31 12:29:0663.92574-22.3582160°27km/h16553m-15.7m/s-45.2°C0.8%0hPa0V00:00:0000:00:0000:00:00
DL9RDZ-12026-08-31 12:28:5563.92538-22.3599872°35km/h16736m-18.0m/s-45.8°C0.8%0hPa0V00:00:0000:00:0000:00:00
DL9RDZ-12026-08-31 12:28:4463.92514-22.3621779°37km/h16926m-17.4m/s-46.5°C0.9%0hPa0V00:00:0000:00:0000:00:00
DL9RDZ-12026-08-31 12:28:3363.92507-22.3643388°27km/h17116m-18.4m/s-46.8°C0.9%0hPa0V00:00:0000:00:0000:00:00
DL9RDZ-12026-08-31 12:28:0863.92455-22.3663234°26km/h17572m-17.4m/s-47.3°C0.9%0hPa0V00:00:0000:00:0000:00:00
DL9RDZ-12026-08-31 12:27:5763.92414-22.3676479°27km/h17768m-15.9m/s-47.6°C1.0%0hPa0V00:00:0000:00:0000:00:00
DL9RDZ-12026-08-31 12:27:4663.92418-22.36935107°22km/h17949m-18.7m/s-47.3°C0.9%0hPa0V00:00:0000:00:0000:00:00
DL9RDZ-12026-08-31 12:27:3663.92415-22.3702471°15km/h18127m-20.9m/s-47.2°C0.9%0hPa0V00:00:0000:00:0000:00:00
DL9RDZ-12026-08-31 12:27:2463.92402-22.3713070°15km/h18342m-17.3m/s-47.3°C0.9%0hPa0V00:00:0000:00:0000:00:00
DL9RDZ-12026-08-31 12:25:1763.91888-22.3835458°31km/h20825m-20.6m/s-47.9°C0.8%0hPa0V00:00:0000:00:0000:00:00
DL9RDZ-12026-08-31 12:24:2463.91763-22.3913888°22km/h21972m-22.1m/s-45.7°C0.8%0hPa0V08:27:0000:00:0000:00:00
DL9RDZ-12026-08-31 12:24:1463.91761-22.3919811km/h22192m-24.8m/s-46.3°C0.8%0hPa0V08:27:0000:00:0000:00:00
DL9RDZ-12026-08-31 12:24:0363.91704-22.3921621°27km/h22434m-20.1m/s-46.8°C0.8%0hPa0V08:28:0000:00:0000:00:00
DL9RDZ-12026-08-31 12:23:5263.91633-22.3931745°27km/h22679m-23.8m/s-47.9°C0.8%0hPa0V08:28:0000:00:0000:00:00
DL9RDZ-12026-08-31 12:23:4163.91582-22.3942951°26km/h22940m-21.9m/s-48.1°C0.9%0hPa0V08:28:0000:00:0000:00:00
DL9RDZ-12026-08-31 12:23:3063.91550-22.3955649°16km/h23175m-22.4m/s-47.7°C0.8%0hPa0V08:28:0000:00:0000:00:00
DL9RDZ-12026-08-31 12:23:2063.91511-22.3960333°24km/h23402m-25.3m/s-47.5°C0.8%0hPa0V08:28:0000:00:0000:00:00
DL9RDZ-12026-08-31 12:23:0963.91463-22.3968345°13km/h23656m-24.9m/s-46.9°C0.8%0hPa0V00:00:0000:00:0000:00:00
DL9RDZ-12026-08-31 12:20:3663.90935-22.40565129°7km/h25825m5.1m/s-48.1°C0.8%0hPa0V00:00:0000:00:0000:00:00
DL9RDZ-12026-08-31 12:20:1963.90943-22.4075390°13km/h25722m5.4m/s-47.8°C0.8%0hPa0V00:00:0000:00:0000:00:00
DL9RDZ-12026-08-31 12:17:2763.90283-22.42301107°18km/h24676m6.3m/s-46.5°C0.8%0hPa0V00:00:0000:00:0000:00:00
DL9RDZ-12026-08-31 12:17:1663.90249-22.4241472°22km/h24609m6.0m/s-46.6°C0.8%0hPa0V00:00:0000:00:0000:00:00
DL9RDZ-12026-08-31 12:17:0563.90223-22.4253041°35km/h24545m4.7m/s-46.5°C0.8%0hPa0V00:00:0000:00:0000:00:00
DL9RDZ-12026-08-31 12:16:5563.90177-22.4261336°13km/h24486m5.7m/s-46.3°C0.8%0hPa0V00:00:0000:00:0000:00:00
DL9RDZ-12026-08-31 12:16:4563.90140-22.4269137°22km/h24426m4.7m/s-46.3°C0.8%0hPa0V00:00:0000:00:0000:00:00
DL9RDZ-12026-08-31 12:16:3463.90078-22.4277925°26km/h24360m7.0m/s-46.3°C0.8%0hPa0V00:00:0000:00:0000:00:00
DL9RDZ-12026-08-31 12:15:2663.89698-22.4311330°16km/h23947m6.2m/s-46.8°C0.8%0hPa0V00:00:0000:00:0000:00:00
DL9RDZ-12026-08-31 12:15:1763.89664-22.4315161°13km/h23888m7.1m/s-47.0°C0.8%0hPa0V00:00:0000:00:0000:00:00
DL9RDZ-12026-08-31 12:15:0563.89638-22.4320017°11km/h23820m6.5m/s-47.2°C0.8%0hPa0V00:00:0000:00:0000:00:00
DL9RDZ-12026-08-31 12:14:5563.89610-22.4326346°16km/h23761m5.8m/s-47.0°C0.8%0hPa0V00:00:0000:00:0000:00:00
DL9RDZ-12026-08-31 12:14:4563.89577-22.4331228°16km/h23702m7.2m/s-47.2°C0.9%0hPa0V00:00:0000:00:0000:00:00
DL9RDZ-12026-08-31 12:14:3463.89543-22.4337445°22km/h23634m5.9m/s-47.4°C0.8%0hPa0V00:00:0000:00:0000:00:00
DL9RDZ-12026-08-31 12:14:2363.89486-22.4348058°24km/h23566m5.4m/s-47.4°C0.8%0hPa0V00:00:0000:00:0000:00:00
DL9RDZ-12026-08-31 12:14:1263.89422-22.4357838°26km/h23497m2.9m/s-47.4°C0.9%0hPa0V00:00:0000:00:0000:00:00
DL9RDZ-12026-08-31 12:14:0263.89363-22.4365724°24km/h23436m3.9m/s-47.2°C0.8%0hPa0V00:00:0000:00:0000:00:00
DL9RDZ-12026-08-31 12:13:5163.89311-22.4373534°20km/h23371m6.9m/s-47.0°C0.8%0hPa0V00:00:0000:00:0000:00:00
DL9RDZ-12026-08-31 12:13:4063.89265-22.4378613km/h23304m4.4m/s-46.8°C0.8%0hPa0V00:00:0000:00:0000:00:00
DL9RDZ-12026-08-31 12:13:3063.89226-22.4382729°22km/h23243m6.9m/s-46.8°C0.8%0hPa0V00:00:0000:00:0000:00:00
DL9RDZ-12026-08-31 12:13:1963.89199-22.4389371°15km/h23178m5.2m/s-47.1°C0.9%0hPa0V00:00:0000:00:0000:00:00
DL9RDZ-12026-08-31 12:13:0963.89172-22.4399160°31km/h23115m3.2m/s-47.2°C0.8%0hPa0V00:00:0000:00:0000:00:00
DL9RDZ-12026-08-31 12:12:5863.89163-22.4414874°33km/h23040m7.1m/s-47.6°C0.9%0hPa0V00:00:0000:00:0000:00:00
DL9RDZ-12026-08-31 12:12:4863.89134-22.4428677°22km/h22986m5.6m/s-47.4°C0.9%0hPa0V00:00:0000:00:0000:00:00
DL9RDZ-12026-08-31 12:12:2263.89037-22.4463256°22km/h22835m7.1m/s-47.7°C0.9%0hPa0V00:00:0000:00:0000:00:00
DL9RDZ-12026-08-31 12:12:1163.88999-22.4475336°26km/h22769m6.9m/s-47.5°C0.9%0hPa0V00:00:0000:00:0000:00:00
DL9RDZ-12026-08-31 12:12:0163.88969-22.4488755°35km/h22710m5.3m/s-47.7°C0.9%0hPa0V00:00:0000:00:0000:00:00
DL9RDZ-12026-08-31 12:11:5063.88916-22.4502956°33km/h22645m6.1m/s-47.9°C0.9%0hPa0V00:00:0000:00:0000:00:00
DL9RDZ-12026-08-31 12:11:3963.88850-22.4518234°27km/h22579m5.7m/s-47.6°C0.9%0hPa0V00:00:0000:00:0000:00:00
DL9RDZ-12026-08-31 12:11:2863.88793-22.4529735°26km/h22511m5.8m/s-47.4°C0.9%0hPa0V00:00:0000:00:0000:00:00
DL9RDZ-12026-08-31 12:11:1863.88745-22.4534422°22km/h22454m6.0m/s-47.4°C0.9%0hPa0V00:00:0000:00:0000:00:00
DL9RDZ-12026-08-31 12:11:0763.88695-22.4538815km/h22389m5.6m/s-47.2°C0.9%0hPa0V00:00:0000:00:0000:00:00
DL9RDZ-12026-08-31 12:10:5763.88671-22.4541817°7km/h22333m5.4m/s-47.4°C0.9%0hPa0V00:00:0000:00:0000:00:00
DL9RDZ-12026-08-31 12:10:4663.88662-22.45454115°9km/h22266m6.7m/s-47.1°C0.9%0hPa0V00:00:0000:00:0000:00:00
DL9RDZ-12026-08-31 12:09:3263.88513-22.4629051°26km/h21822m5.6m/s-47.5°C0.9%0hPa0V00:00:0000:00:0000:00:00
DL9RDZ-12026-08-31 12:09:2063.88442-22.4639249°26km/h21735m4.6m/s-48.0°C0.9%0hPa0V00:00:0000:00:0000:00:00
DL9RDZ-12026-08-31 12:09:0763.88371-22.4653246°27km/h21666m7.0m/s-48.2°C1.0%0hPa0V00:00:0000:00:0000:00:00
DL9RDZ-12026-08-31 12:08:5763.88316-22.4662930°33km/h21606m6.5m/s-48.2°C1.0%0hPa0V00:00:0000:00:0000:00:00
DL9RDZ-12026-08-31 12:08:4763.88263-22.4671434°24km/h21547m6.4m/s-47.9°C0.9%0hPa0V00:00:0000:00:0000:00:00
DL9RDZ-12026-08-31 12:08:3663.88205-22.4679334°20km/h21483m5.9m/s-47.6°C0.9%0hPa0V00:00:0000:00:0000:00:00
DL9RDZ-12026-08-31 12:07:0363.87997-22.4811653°33km/h20939m6.0m/s-47.7°C0.9%0hPa0V00:00:0000:00:0000:00:00
DL9RDZ-12026-08-31 12:06:5263.87935-22.4828240°37km/h20873m5.7m/s-47.7°C1.0%0hPa0V00:00:0000:00:0000:00:00
DL9RDZ-12026-08-31 12:06:4163.87867-22.4841856°35km/h20809m6.2m/s-47.3°C0.9%0hPa0V00:00:0000:00:0000:00:00
DL9RDZ-12026-08-31 12:06:3063.87819-22.4855661°33km/h20744m5.0m/s-47.2°C0.9%0hPa0V00:00:0000:00:0000:00:00
DL9RDZ-12026-08-31 12:06:2063.87776-22.4869845°22km/h20683m5.8m/s-47.3°C0.9%0hPa0V00:00:0000:00:0000:00:00
DL9RDZ-12026-08-31 12:06:0963.87730-22.4884451°26km/h20617m5.3m/s-47.4°C0.9%0hPa0V00:00:0000:00:0000:00:00
DL9RDZ-12026-08-31 12:05:5963.87694-22.4897859°37km/h20557m5.4m/s-47.5°C0.9%0hPa0V00:00:0000:00:0000:00:00
DL9RDZ-12026-08-31 12:05:4863.87643-22.4915555°29km/h20487m5.3m/s-47.3°C0.9%0hPa0V00:00:0000:00:0000:00:00
DL9RDZ-12026-08-31 12:05:3863.87584-22.4928850°29km/h20426m5.6m/s-47.5°C1.0%0hPa0V00:00:0000:00:0000:00:00
DL9RDZ-12026-08-31 12:05:2763.87508-22.4943847°37km/h20365m5.4m/s-47.8°C1.0%0hPa0V00:00:0000:00:0000:00:00
DL9RDZ-12026-08-31 12:05:1763.87445-22.4957626°29km/h20308m5.2m/s-47.7°C1.0%0hPa0V00:00:0000:00:0000:00:00
DL9RDZ-12026-08-31 12:05:0663.87380-22.4966823°27km/h20245m5.5m/s-47.5°C1.0%0hPa0V00:00:0000:00:0000:00:00
DL9RDZ-12026-08-31 12:04:5663.87327-22.4970812°16km/h20189m3.9m/s-47.9°C1.0%0hPa0V00:00:0000:00:0000:00:00
DL9RDZ-12026-08-31 12:04:4563.87291-22.4975340°13km/h20128m5.1m/s-47.8°C1.0%0hPa0V00:00:0000:00:0000:00:00
DL9RDZ-12026-08-31 12:04:3663.87260-22.4981544°18km/h20071m4.8m/s-47.5°C1.0%0hPa0V00:00:0000:00:0000:00:00
DL9RDZ-12026-08-31 12:04:2463.87219-22.4990042°22km/h20012m6.2m/s-47.5°C0.9%0hPa0V00:00:0000:00:0000:00:00
DL9RDZ-12026-08-31 12:04:1463.87184-22.5000059°29km/h19961m4.2m/s-47.5°C1.0%0hPa0V00:00:0000:00:0000:00:00
DL9RDZ-12026-08-31 12:04:0363.87126-22.5015043°29km/h19901m4.4m/s-47.2°C1.0%0hPa0V00:00:0000:00:0000:00:00
DL9RDZ-12026-08-31 12:03:5263.87064-22.5027626°29km/h19841m4.7m/s-47.2°C0.9%0hPa0V00:00:0000:00:0000:00:00
DL9RDZ-12026-08-31 12:03:4263.87022-22.5034218°16km/h19786m6.6m/s-47.7°C1.0%0hPa0V00:00:0000:00:0000:00:00
DL9RDZ-12026-08-31 12:03:3163.86980-22.5042549°18km/h19726m5.1m/s-48.0°C1.0%0hPa0V00:00:0000:00:0000:00:00
DL9RDZ-12026-08-31 12:03:2063.86943-22.5050963°26km/h19665m6.2m/s-48.4°C1.1%0hPa0V00:00:0000:00:0000:00:00
DL9RDZ-12026-08-31 12:03:0963.86903-22.5060260°27km/h19605m4.4m/s-48.4°C1.0%0hPa0V00:00:0000:00:0000:00:00
DL9RDZ-12026-08-31 12:01:4863.86658-22.5093961°15km/h19129m6.3m/s-46.1°C0.9%0hPa0V00:00:0000:00:0000:00:00
DL9RDZ-12026-08-31 12:01:0963.86653-22.5128883°24km/h18908m5.9m/s-45.8°C0.9%0hPa0V00:00:0000:00:0000:00:00
DL9RDZ-12026-08-31 12:00:4863.86617-22.5155766°22km/h18784m5.8m/s-46.5°C1.0%0hPa0V00:00:0000:00:0000:00:00
DL9RDZ-12026-08-31 12:00:3863.86580-22.5168053°18km/h18722m3.9m/s-46.8°C1.0%0hPa0V00:00:0000:00:0000:00:00
DL9RDZ-12026-08-31 12:00:2763.86518-22.5178935°27km/h18661m4.9m/s-46.7°C1.0%0hPa0V00:00:0000:00:0000:00:00
DL9RDZ-12026-08-31 12:00:1763.86457-22.5186230°24km/h18607m5.0m/s-46.7°C1.0%0hPa0V00:00:0000:00:0000:00:00
DL9RDZ-12026-08-31 12:00:0563.86410-22.5193029°18km/h18546m5.0m/s-46.6°C0.9%0hPa0V00:00:0000:00:0000:00:00
DL9RDZ-12026-08-31 11:59:5563.86369-22.5196616°13km/h18486m4.1m/s-46.7°C1.0%0hPa0V00:00:0000:00:0000:00:00
DL9RDZ-12026-08-31 11:59:4363.86356-22.5200063°9km/h18421m5.9m/s-47.1°C1.0%0hPa0V00:00:0000:00:0000:00:00
DL9RDZ-12026-08-31 11:59:3363.86338-22.5207962°11km/h18360m6.3m/s-47.1°C1.0%0hPa0V00:00:0000:00:0000:00:00
DL9RDZ-12026-08-31 11:59:2163.86316-22.5216556°15km/h18299m6.4m/s-47.0°C1.0%0hPa0V00:00:0000:00:0000:00:00
DL9RDZ-12026-08-31 11:59:1263.86309-22.5224287°18km/h18245m4.4m/s-47.1°C1.0%0hPa0V00:00:0000:00:0000:00:00
DL9RDZ-12026-08-31 11:59:0163.86310-22.5235899°20km/h18190m4.4m/s-47.1°C1.0%0hPa0V00:00:0000:00:0000:00:00
DL9RDZ-12026-08-31 11:58:5063.86299-22.5244668°20km/h18129m4.7m/s-47.2°C1.0%0hPa0V00:00:0000:00:0000:00:00
DL9RDZ-12026-08-31 11:58:4063.86282-22.5253676°13km/h18068m4.4m/s-47.1°C1.0%0hPa0V00:00:0000:00:0000:00:00
DL9RDZ-12026-08-31 11:58:2963.86277-22.5262795°13km/h18010m5.5m/s-47.0°C1.0%0hPa0V00:00:0000:00:0000:00:00
DL9RDZ-12026-08-31 11:58:0663.86304-22.52945100°35km/h17893m4.4m/s-47.3°C1.0%0hPa0V00:00:0000:00:0000:00:00
DL9RDZ-12026-08-31 11:57:5663.86314-22.5313282°31km/h17841m5.8m/s-47.3°C1.0%0hPa0V00:00:0000:00:0000:00:00
DL9RDZ-12026-08-31 11:57:4663.86310-22.5330690°27km/h17788m5.9m/s-47.3°C1.0%0hPa0V00:00:0000:00:0000:00:00
DL9RDZ-12026-08-31 11:57:1163.86211-22.5377333°18km/h17587m4.6m/s-47.0°C1.0%0hPa0V00:00:0000:00:0000:00:00
DL9RDZ-12026-08-31 11:56:5763.86152-22.5384337°18km/h17520m5.3m/s-46.9°C1.0%0hPa0V00:00:0000:00:0000:00:00
DL9RDZ-12026-08-31 11:56:4663.86111-22.5387526°11km/h17457m6.4m/s-46.5°C1.0%0hPa0V00:00:0000:00:0000:00:00
DL9RDZ-12026-08-31 11:56:3663.86079-22.5391823°15km/h17397m6.0m/s-46.3°C1.0%0hPa0V00:00:0000:00:0000:00:00
DL9RDZ-12026-08-31 11:56:2463.86061-22.5396985°13km/h17336m5.0m/s-46.3°C1.0%0hPa0V00:00:0000:00:0000:00:00
DL9RDZ-12026-08-31 11:56:1363.86052-22.5408395°20km/h17276m5.6m/s-46.4°C1.0%0hPa0V00:00:0000:00:0000:00:00
DL9RDZ-12026-08-31 11:56:0363.86056-22.5420998°26km/h17220m4.5m/s-46.7°C1.0%0hPa0V00:00:0000:00:0000:00:00
DL9RDZ-12026-08-31 11:55:5363.86061-22.5435991°27km/h17157m6.5m/s-46.7°C1.0%0hPa0V00:00:0000:00:0000:00:00
DL9RDZ-12026-08-31 11:55:4163.86056-22.5456386°33km/h17096m5.4m/s-46.5°C1.0%0hPa0V00:00:0000:00:0000:00:00
DL9RDZ-12026-08-31 11:55:3163.86042-22.5480486°40km/h17037m4.6m/s-46.4°C1.0%0hPa0V00:00:0000:00:0000:00:00
DL9RDZ-12026-08-31 11:55:1963.86019-22.5507586°40km/h16978m5.8m/s-46.1°C1.0%0hPa0V00:00:0000:00:0000:00:00
DL9RDZ-12026-08-31 11:55:0863.85996-22.5532283°37km/h16919m5.8m/s-46.3°C1.0%0hPa0V00:00:0000:00:0000:00:00
DL9RDZ-12026-08-31 11:54:5763.85977-22.5554567°42km/h16862m5.0m/s-46.2°C1.0%0hPa0V00:00:0000:00:0000:00:00
DL9RDZ-12026-08-31 11:54:4763.85941-22.5577766°40km/h16807m3.9m/s-46.0°C1.0%0hPa0V00:00:0000:00:0000:00:00
DL9RDZ-12026-08-31 11:54:3663.85902-22.5600171°38km/h16755m6.2m/s-45.7°C1.0%0hPa0V00:00:0000:00:0000:00:00
DL9RDZ-12026-08-31 11:54:2563.85857-22.5621762°40km/h16699m5.7m/s-45.4°C1.0%0hPa0V00:00:0000:00:0000:00:00
DL9RDZ-12026-08-31 11:54:1563.85812-22.5638654°31km/h16642m3.8m/s-45.2°C1.0%0hPa0V00:00:0000:00:0000:00:00
DL9RDZ-12026-08-31 11:54:0663.85770-22.5652758°26km/h16587m4.2m/s-45.2°C1.0%0hPa0V00:00:0000:00:0000:00:00
DL9RDZ-12026-08-31 11:53:5463.85731-22.5663354°20km/h16530m6.1m/s-45.0°C1.0%0hPa0V00:00:0000:00:0000:00:00
DL9RDZ-12026-08-31 11:53:4463.85695-22.5677785°24km/h16475m4.4m/s-44.9°C1.0%0hPa0V00:00:0000:00:0000:00:00
DL9RDZ-12026-08-31 11:53:3263.85671-22.5691560°22km/h16416m5.3m/s-45.0°C1.0%0hPa0V00:00:0000:00:0000:00:00
DL9RDZ-12026-08-31 11:53:2263.85656-22.5706367°22km/h16357m4.3m/s-44.9°C0.9%0hPa0V00:00:0000:00:0000:00:00
DL9RDZ-12026-08-31 11:53:1263.85644-22.5721994°35km/h16304m6.0m/s-45.4°C1.0%0hPa0V00:00:0000:00:0000:00:00
DL9RDZ-12026-08-31 11:53:0163.85639-22.5742781°31km/h16248m3.8m/s-46.2°C1.0%0hPa0V00:00:0000:00:0000:00:00
DL9RDZ-12026-08-31 11:52:5063.85619-22.5757082°20km/h16198m3.7m/s-46.2°C1.0%0hPa0V00:00:0000:00:0000:00:00
DL9RDZ-12026-08-31 11:52:4063.85589-22.5772760°22km/h16138m6.1m/s-46.2°C1.1%0hPa0V00:00:0000:00:0000:00:00
DL9RDZ-12026-08-31 11:52:3063.85559-22.5784066°26km/h16084m3.0m/s-46.3°C1.0%0hPa0V00:00:0000:00:0000:00:00
DL9RDZ-12026-08-31 11:52:1963.85526-22.5795150°18km/h16032m4.9m/s-46.1°C1.0%0hPa0V00:00:0000:00:0000:00:00
DL9RDZ-12026-08-31 11:52:0763.85498-22.5804540°13km/h15976m3.4m/s-45.8°C1.1%0hPa0V00:00:0000:00:0000:00:00
DL9RDZ-12026-08-31 11:51:5863.85477-22.5811559°15km/h15927m4.4m/s-45.9°C1.1%0hPa0V00:00:0000:00:0000:00:00
DL9RDZ-12026-08-31 11:51:4763.85462-22.5817180°13km/h15870m5.9m/s-46.0°C1.1%0hPa0V00:00:0000:00:0000:00:00
DL9RDZ-12026-08-31 11:51:3563.85455-22.5827991°24km/h15814m4.8m/s-46.2°C1.1%0hPa0V00:00:0000:00:0000:00:00
DL9RDZ-12026-08-31 11:51:2463.85449-22.5841878°24km/h15761m6.3m/s-45.9°C1.0%0hPa0V00:00:0000:00:0000:00:00
DL9RDZ-12026-08-31 11:51:1563.85427-22.5852567°26km/h15710m4.6m/s-45.8°C1.1%0hPa0V00:00:0000:00:0000:00:00
DL9RDZ-12026-08-31 11:51:0563.85397-22.5864056°24km/h15661m3.6m/s-45.6°C1.1%0hPa0V00:00:0000:00:0000:00:00
DL9RDZ-12026-08-31 11:50:5363.85371-22.5874647°20km/h15607m4.3m/s-45.6°C1.1%0hPa0V00:00:0000:00:0000:00:00
DL9RDZ-12026-08-31 11:50:4363.85349-22.5882870°18km/h15559m5.5m/s-45.5°C1.1%0hPa0V00:00:0000:00:0000:00:00
DL9RDZ-12026-08-31 11:50:3263.85331-22.5893470°20km/h15500m4.4m/s-45.5°C1.1%0hPa0V00:00:0000:00:0000:00:00
DL9RDZ-12026-08-31 11:50:2163.85304-22.5904962°22km/h15441m5.6m/s-45.3°C1.0%0hPa0V00:00:0000:00:0000:00:00
DL9RDZ-12026-08-31 11:50:1163.85278-22.5913343°22km/h15389m4.5m/s-45.3°C1.0%0hPa0V00:00:0000:00:0000:00:00
DL9RDZ-12026-08-31 11:50:0063.85245-22.5920953°13km/h15334m4.0m/s-45.6°C1.1%0hPa0V00:00:0000:00:0000:00:00
DL9RDZ-12026-08-31 11:49:5063.85224-22.5929579°15km/h15275m4.8m/s-45.7°C1.1%0hPa0V00:00:0000:00:0000:00:00
DL9RDZ-12026-08-31 11:49:3863.85217-22.5936986°11km/h15217m5.8m/s-45.7°C1.1%0hPa0V00:00:0000:00:0000:00:00
DL9RDZ-12026-08-31 11:49:2963.85210-22.59439102°13km/h15163m5.9m/s-45.7°C1.1%0hPa0V00:00:0000:00:0000:00:00
DL9RDZ-12026-08-31 11:49:1763.85215-22.59550111°18km/h15108m4.3m/s-45.5°C1.1%0hPa0V00:00:0000:00:0000:00:00
DL9RDZ-12026-08-31 11:49:0263.85237-22.59751104°26km/h15028m5.7m/s-45.4°C1.1%0hPa0V00:00:0000:00:0000:00:00
DL9RDZ-12026-08-31 11:48:5263.85251-22.59921103°29km/h14968m5.4m/s-45.2°C1.1%0hPa0V00:00:0000:00:0000:00:00
DL9RDZ-12026-08-31 11:48:4163.85262-22.6008389°27km/h14914m5.9m/s-44.8°C1.1%0hPa0V00:00:0000:00:0000:00:00
DL9RDZ-12026-08-31 11:48:3163.85269-22.6026392°27km/h14858m4.7m/s-44.6°C1.1%0hPa0V00:00:0000:00:0000:00:00
DL9RDZ-12026-08-31 11:48:1963.85274-22.6041398°26km/h14802m5.0m/s-44.3°C1.0%0hPa0V00:00:0000:00:0000:00:00
DL9RDZ-12026-08-31 11:48:1063.85277-22.6057890°31km/h14751m3.6m/s-44.1°C1.0%0hPa0V00:00:0000:00:0000:00:00
DL9RDZ-12026-08-31 11:47:5963.85271-22.6074081°29km/h14702m5.4m/s-44.0°C1.0%0hPa0V00:00:0000:00:0000:00:00
DL9RDZ-12026-08-31 11:47:4963.85249-22.6090176°31km/h14653m5.1m/s-43.7°C1.0%0hPa0V00:00:0000:00:0000:00:00
DL9RDZ-12026-08-31 11:47:3963.85219-22.6108666°35km/h14599m4.7m/s-44.4°C1.1%0hPa0V00:00:0000:00:0000:00:00
DL9RDZ-12026-08-31 11:47:2863.85186-22.6127359°33km/h14550m5.2m/s-44.4°C1.1%0hPa0V00:00:0000:00:0000:00:00
DL9RDZ-12026-08-31 11:47:1863.85142-22.6142060°29km/h14493m5.4m/s-44.4°C1.1%0hPa0V00:00:0000:00:0000:00:00
DL9RDZ-12026-08-31 11:47:0863.85095-22.6158361°31km/h14434m6.8m/s-44.2°C1.1%0hPa0V00:00:0000:00:0000:00:00
DL9RDZ-12026-08-31 11:46:5663.85038-22.6173445°31km/h14375m5.1m/s-44.0°C1.1%0hPa0V00:00:0000:00:0000:00:00
DL9RDZ-12026-08-31 11:46:4663.84978-22.6187537°29km/h14322m4.7m/s-43.8°C1.1%0hPa0V00:00:0000:00:0000:00:00
DL9RDZ-12026-08-31 11:46:3663.84917-22.6197041°26km/h14271m6.6m/s-43.6°C1.0%0hPa0V00:00:0000:00:0000:00:00
DL9RDZ-12026-08-31 11:46:2563.84861-22.6206031°29km/h14219m5.6m/s-43.5°C1.0%0hPa0V00:00:0000:00:0000:00:00
DL9RDZ-12026-08-31 11:46:1463.84803-22.6213839°24km/h14165m5.1m/s-43.7°C1.1%0hPa0V00:00:0000:00:0000:00:00
DL9RDZ-12026-08-31 11:46:0363.84774-22.6218633°20km/h14109m6.2m/s-43.4°C1.0%0hPa0V00:00:0000:00:0000:00:00
DL9RDZ-12026-08-31 11:45:5363.84756-22.6222247°5km/h14034m5.3m/s-43.6°C1.1%0hPa0V00:00:0000:00:0000:00:00
DL9RDZ-12026-08-31 11:45:4263.84758-22.62280103°11km/h13978m5.2m/s-43.5°C1.0%0hPa0V00:00:0000:00:0000:00:00
DL9RDZ-12026-08-31 11:45:3263.84776-22.62363106°15km/h13919m4.2m/s-43.9°C1.1%0hPa0V00:00:0000:00:0000:00:00
DL9RDZ-12026-08-31 11:45:2063.84814-22.62471136°22km/h13863m5.4m/s-43.9°C1.1%0hPa0V00:00:0000:00:0000:00:00
DL9RDZ-12026-08-31 11:45:0963.84846-22.62571121°27km/h13808m3.9m/s-43.8°C1.1%0hPa0V00:00:0000:00:0000:00:00
DL9RDZ-12026-08-31 11:44:5963.84875-22.62705108°27km/h13758m4.0m/s-44.0°C1.1%0hPa0V00:00:0000:00:0000:00:00
DL9RDZ-12026-08-31 11:44:4963.84889-22.62869101°33km/h13704m3.5m/s-44.6°C1.1%0hPa0V00:00:0000:00:0000:00:00
DL9RDZ-12026-08-31 11:44:3863.84898-22.6310497°35km/h13651m4.4m/s-44.8°C1.2%0hPa0V00:00:0000:00:0000:00:00
DL9RDZ-12026-08-31 11:44:2963.84912-22.63290101°35km/h13601m5.9m/s-45.0°C1.2%0hPa0V00:00:0000:00:0000:00:00
DL9RDZ-12026-08-31 11:44:1763.84920-22.6347492°26km/h13549m5.7m/s-45.0°C1.2%0hPa0V00:00:0000:00:0000:00:00
DL9RDZ-12026-08-31 11:44:0763.84916-22.6363280°31km/h13500m5.2m/s-44.9°C1.2%0hPa0V00:00:0000:00:0000:00:00
DL9RDZ-12026-08-31 11:43:5763.84913-22.6377586°22km/h13449m5.9m/s-44.9°C1.2%0hPa0V00:00:0000:00:0000:00:00
DL9RDZ-12026-08-31 11:43:4763.84911-22.6390799°20km/h13400m3.2m/s-44.9°C1.2%0hPa0V00:00:0000:00:0000:00:00
DL9RDZ-12026-08-31 11:43:3763.84912-22.64026101°18km/h13350m3.8m/s-45.3°C1.2%0hPa0V00:00:0000:00:0000:00:00
DL9RDZ-12026-08-31 11:43:2463.84924-22.6418691°15km/h13286m3.2m/s-45.6°C1.2%0hPa0V00:00:0000:00:0000:00:00
DL9RDZ-12026-08-31 11:43:1463.84946-22.64280126°18km/h13235m4.6m/s-45.6°C1.3%0hPa0V00:00:0000:00:0000:00:00
DL9RDZ-12026-08-31 11:42:3563.85142-22.64712145°33km/h13018m1.3m/s-45.4°C1.3%0hPa0V00:00:0000:00:0000:00:00
DL9RDZ-12026-08-31 11:42:2263.85192-22.64864126°24km/h12968m2.9m/s-45.2°C1.3%0hPa0V00:00:0000:00:0000:00:00
DL9RDZ-12026-08-31 11:42:1163.85230-22.65045113°35km/h12912m6.1m/s-45.3°C1.3%0hPa0V00:00:0000:00:0000:00:00
DL9RDZ-12026-08-31 11:42:0063.85257-22.65227107°27km/h12856m4.6m/s-45.3°C1.3%0hPa0V00:00:0000:00:0000:00:00
DL9RDZ-12026-08-31 11:41:5063.85271-22.6537299°22km/h12800m7.3m/s-45.0°C1.3%0hPa0V00:00:0000:00:0000:00:00
DL9RDZ-12026-08-31 11:41:3863.85283-22.65530105°27km/h12741m3.2m/s-44.7°C1.3%0hPa0V00:00:0000:00:0000:00:00
DL9RDZ-12026-08-31 11:41:2763.85300-22.65719104°35km/h12680m3.3m/s-44.3°C1.3%0hPa0V00:00:0000:00:0000:00:00
DL9RDZ-12026-08-31 11:41:0663.85347-22.6616096°37km/h12567m3.8m/s-43.9°C1.2%0hPa0V00:00:0000:00:0000:00:00
DL9RDZ-12026-08-31 11:40:5563.85354-22.6638997°40km/h12518m5.4m/s-43.9°C1.2%0hPa0V00:00:0000:00:0000:00:00
DL9RDZ-12026-08-31 11:40:4563.85358-22.6664884°40km/h12461m4.2m/s-44.2°C1.3%0hPa0V00:00:0000:00:0000:00:00
DL9RDZ-12026-08-31 11:40:3463.85346-22.6684490°33km/h12411m4.8m/s-43.8°C1.3%0hPa0V00:00:0000:00:0000:00:00
DL9RDZ-12026-08-31 11:40:2463.85331-22.6704572°27km/h12358m5.5m/s-43.6°C1.3%0hPa0V00:00:0000:00:0000:00:00
DL9RDZ-12026-08-31 11:40:1263.85312-22.6722369°27km/h12296m5.4m/s-43.8°C1.3%0hPa0V00:00:0000:00:0000:00:00
DL9RDZ-12026-08-31 11:40:0163.85295-22.6737892°27km/h12250m3.0m/s-44.2°C1.4%0hPa0V00:00:0000:00:0000:00:00
DL9RDZ-12026-08-31 11:39:5063.85300-22.6754394°24km/h12196m4.9m/s-43.9°C1.4%0hPa0V00:00:0000:00:0000:00:00
DL9RDZ-12026-08-31 11:39:3963.85306-22.67707102°27km/h12142m4.4m/s-44.1°C1.4%0hPa0V00:00:0000:00:0000:00:00
DL9RDZ-12026-08-31 11:39:3063.85323-22.67845115°29km/h12094m3.5m/s-44.3°C1.5%0hPa0V00:00:0000:00:0000:00:00
DL9RDZ-12026-08-31 11:38:5963.85405-22.68235129°27km/h11945m5.9m/s-45.4°C1.6%0hPa0V00:00:0000:00:0000:00:00
DL9RDZ-12026-08-31 11:38:4963.85446-22.68377117°26km/h11893m5.1m/s-45.2°C1.6%0hPa0V00:00:0000:00:0000:00:00
DL9RDZ-12026-08-31 11:38:3763.85479-22.68545110°27km/h11840m4.5m/s-45.0°C1.6%0hPa0V00:00:0000:00:0000:00:00
DL9RDZ-12026-08-31 11:38:2663.85499-22.6871990°35km/h11781m4.9m/s-44.9°C1.5%0hPa0V00:00:0000:00:0000:00:00
DL9RDZ-12026-08-31 11:38:1563.85497-22.6891486°31km/h11724m5.0m/s-44.9°C1.5%0hPa0V00:00:0000:00:0000:00:00
DL9RDZ-12026-08-31 11:38:0463.85505-22.69077105°24km/h11674m4.3m/s-44.8°C1.5%0hPa0V00:00:0000:00:0000:00:00
DL9RDZ-12026-08-31 11:37:5463.85512-22.6920199°18km/h11628m5.9m/s-45.0°C1.5%0hPa0V00:00:0000:00:0000:00:00
DL9RDZ-12026-08-31 11:37:4363.85516-22.69327100°24km/h11575m5.9m/s-45.0°C1.5%0hPa0V00:00:0000:00:0000:00:00
DL9RDZ-12026-08-31 11:37:3363.85522-22.69452112°20km/h11524m4.9m/s-44.9°C1.6%0hPa0V00:00:0000:00:0000:00:00
DL9RDZ-12026-08-31 11:37:2163.85540-22.69557117°18km/h11474m5.1m/s-44.8°C1.5%0hPa0V00:00:0000:00:0000:00:00
DL9RDZ-12026-08-31 11:37:1063.85549-22.6966399°16km/h11423m2.5m/s-44.6°C1.5%0hPa0V00:00:0000:00:0000:00:00
DL9RDZ-12026-08-31 11:37:0163.85563-22.69747104°13km/h11381m5.0m/s-44.6°C1.5%0hPa0V00:00:0000:00:0000:00:00
DL9RDZ-12026-08-31 11:36:4963.85572-22.69826102°11km/h11329m6.1m/s-44.7°C1.6%0hPa0V00:00:0000:00:0000:00:00
DL9RDZ-12026-08-31 11:36:3863.85592-22.69931119°16km/h11279m6.0m/s-44.4°C1.5%0hPa0V00:00:0000:00:0000:00:00
DL9RDZ-12026-08-31 11:36:2863.85614-22.70015125°20km/h11232m5.0m/s-44.3°C1.6%0hPa0V00:00:0000:00:0000:00:00
DL9RDZ-12026-08-31 11:36:1763.85654-22.70113161°24km/h11182m5.3m/s-44.2°C1.6%0hPa0V00:00:0000:00:0000:00:00
DL9RDZ-12026-08-31 11:36:0763.85695-22.70180149°20km/h11137m4.0m/s-44.5°C1.6%0hPa0V00:00:0000:00:0000:00:00
DL9RDZ-12026-08-31 11:35:5763.85746-22.70273133°27km/h11092m5.1m/s-44.5°C1.8%0hPa0V00:00:0000:00:0000:00:00
DL9RDZ-12026-08-31 11:35:4763.85797-22.70391132°24km/h11044m4.3m/s-44.7°C1.9%0hPa0V00:00:0000:00:0000:00:00
DL9RDZ-12026-08-31 11:35:3663.85833-22.70512126°22km/h11000m4.3m/s-45.2°C2.1%0hPa0V00:00:0000:00:0000:00:00
DL9RDZ-12026-08-31 11:35:2663.85864-22.70619127°20km/h10956m3.2m/s-45.2°C2.1%0hPa0V00:00:0000:00:0000:00:00
DL9RDZ-12026-08-31 11:35:1663.85898-22.70709130°22km/h10912m4.5m/s-45.4°C2.2%0hPa0V00:00:0000:00:0000:00:00
DL9RDZ-12026-08-31 11:34:5763.85981-22.70922131°22km/h10829m6.2m/s-45.5°C2.2%0hPa0V00:00:0000:00:0000:00:00
DL9RDZ-12026-08-31 11:34:4663.86036-22.71029147°24km/h10775m4.9m/s-46.0°C2.3%0hPa0V00:00:0000:00:0000:00:00
DL9RDZ-12026-08-31 11:34:3563.86094-22.71115138°26km/h10721m4.1m/s-46.1°C2.3%0hPa0V00:00:0000:00:0000:00:00
DL9RDZ-12026-08-31 11:34:2463.86170-22.71239148°29km/h10664m3.9m/s-46.0°C2.4%0hPa0V00:00:0000:00:0000:00:00
DL9RDZ-12026-08-31 11:34:1463.86236-22.71343143°29km/h10613m4.6m/s-46.1°C2.6%0hPa0V00:00:0000:00:0000:00:00
DL9RDZ-12026-08-31 11:34:0463.86292-22.71450146°29km/h10563m5.9m/s-46.5°C2.8%0hPa0V00:00:0000:00:0000:00:00
DL9RDZ-12026-08-31 11:33:5363.86361-22.71543152°24km/h10512m5.3m/s-46.7°C2.9%0hPa0V00:00:0000:00:0000:00:00
DL9RDZ-12026-08-31 11:33:4263.86421-22.71574176°27km/h10460m3.9m/s-46.7°C3.1%0hPa0V00:00:0000:00:0000:00:00
DL9RDZ-12026-08-31 11:33:3163.86487-22.71584176°26km/h10407m3.6m/s-47.0°C3.5%0hPa0V00:00:0000:00:0000:00:00
DL9RDZ-12026-08-31 11:33:2063.86558-22.71626169°27km/h10355m3.8m/s-47.9°C4.2%0hPa0V00:00:0000:00:0000:00:00
DL9RDZ-12026-08-31 11:33:0963.86640-22.71681158°33km/h10305m2.9m/s-48.4°C4.8%0hPa0V00:00:0000:00:0000:00:00
DL9RDZ-12026-08-31 11:32:5963.86714-22.71746145°29km/h10260m4.5m/s-48.9°C5.1%0hPa0V00:00:0000:00:0000:00:00
DL9RDZ-12026-08-31 11:32:4863.86783-22.71808161°29km/h10211m4.6m/s-48.7°C5.1%0hPa0V00:00:0000:00:0000:00:00
DL9RDZ-12026-08-31 11:32:3963.86851-22.71827183°26km/h10166m3.8m/s-48.4°C5.5%0hPa0V00:00:0000:00:0000:00:00
DL9RDZ-12026-08-31 11:32:2763.86921-22.71825177°29km/h10114m5.0m/s-48.7°C6.0%0hPa0V00:00:0000:00:0000:00:00
DL9RDZ-12026-08-31 11:32:1863.86999-22.71804195°29km/h10071m3.8m/s-48.8°C6.4%0hPa0V00:00:0000:00:0000:00:00
DL9RDZ-12026-08-31 11:32:0663.87077-22.71793176°27km/h10022m4.9m/s-49.0°C7.3%0hPa0V00:00:0000:00:0000:00:00
DL9RDZ-12026-08-31 11:31:5663.87152-22.71785186°40km/h9978m3.7m/s-49.8°C8.7%0hPa0V00:00:0000:00:0000:00:00
DL9RDZ-12026-08-31 11:31:4663.87258-22.71777181°40km/h9929m4.6m/s-50.0°C9.2%0hPa0V00:00:0000:00:0000:00:00
DL9RDZ-12026-08-31 11:31:3563.87376-22.71778184°46km/h9879m3.8m/s-50.6°C10.6%0hPa0V00:00:0000:00:0000:00:00
DL9RDZ-12026-08-31 11:31:2463.87485-22.71734192°46km/h9830m5.3m/s-50.6°C12.0%0hPa0V00:00:0000:00:0000:00:00
DL9RDZ-12026-08-31 11:31:1463.87590-22.71676216°46km/h9784m5.1m/s-50.3°C13.6%0hPa0V00:00:0000:00:0000:00:00
DL9RDZ-12026-08-31 11:31:0463.87701-22.71573190°53km/h9719m4.2m/s-49.9°C16.1%0hPa0V00:00:0000:00:0000:00:00
DL9RDZ-12026-08-31 11:30:5363.87838-22.71506193°53km/h9664m5.2m/s-50.5°C20.3%0hPa0V00:00:0000:00:0000:00:00
DL9RDZ-12026-08-31 11:30:4363.87980-22.71466191°58km/h9619m4.4m/s-51.4°C25.5%0hPa0V00:00:0000:00:0000:00:00
DL9RDZ-12026-08-31 11:30:3363.88137-22.71423182°62km/h9570m6.0m/s-52.1°C35.0%0hPa0V00:00:0000:00:0000:00:00
DL9RDZ-12026-08-31 11:30:2263.88314-22.71386191°66km/h9519m4.3m/s-52.5°C43.0%0hPa0V00:00:0000:00:0000:00:00
DL9RDZ-12026-08-31 11:30:1163.88496-22.71281197°71km/h9461m6.2m/s-52.3°C46.5%0hPa0V00:00:0000:00:0000:00:00
DL9RDZ-12026-08-31 11:30:0063.88689-22.71153200°77km/h9409m5.0m/s-52.0°C44.7%0hPa0V00:00:0000:00:0000:00:00
DL9RDZ-12026-08-31 11:29:4963.88891-22.71020197°75km/h9353m4.0m/s-51.6°C41.7%0hPa0V00:00:0000:00:0000:00:00
DL9RDZ-12026-08-31 11:29:4063.89075-22.70913195°73km/h9306m4.4m/s-51.4°C40.4%0hPa0V00:00:0000:00:0000:00:00
DL9RDZ-12026-08-31 11:29:2863.89271-22.70791194°77km/h9251m4.1m/s-51.1°C41.6%0hPa0V00:00:0000:00:0000:00:00
DL9RDZ-12026-08-31 11:29:1863.89459-22.70665199°75km/h9194m5.8m/s-50.9°C40.2%0hPa0V00:00:0000:00:0000:00:00
DL9RDZ-12026-08-31 11:29:0763.89668-22.70515196°82km/h9144m3.7m/s-50.6°C42.3%0hPa0V00:00:0000:00:0000:00:00
DL9RDZ-12026-08-31 11:28:5663.89884-22.70370199°86km/h9094m3.7m/s-50.2°C42.2%0hPa0V00:00:0000:00:0000:00:00
DL9RDZ-12026-08-31 11:28:4663.90084-22.70240201°77km/h9046m3.9m/s-49.8°C41.2%0hPa0V00:00:0000:00:0000:00:00
DL9RDZ-12026-08-31 11:28:3563.90295-22.70094195°84km/h8993m4.6m/s-49.5°C40.6%0hPa0V00:00:0000:00:0000:00:00
DL9RDZ-12026-08-31 11:28:2463.90509-22.69958197°82km/h8940m5.0m/s-49.1°C40.3%0hPa0V00:00:0000:00:0000:00:00
DL9RDZ-12026-08-31 11:28:1463.90722-22.69799198°77km/h8887m4.8m/s-48.7°C40.7%0hPa0V00:00:0000:00:0000:00:00
DL9RDZ-12026-08-31 11:28:0263.90943-22.69671198°80km/h8830m5.0m/s-48.2°C41.7%0hPa0V00:00:0000:00:0000:00:00
DL9RDZ-12026-08-31 11:27:5163.91163-22.69553196°80km/h8767m6.6m/s-47.8°C38.4%0hPa0V00:00:0000:00:0000:00:00
DL9RDZ-12026-08-31 11:27:4063.91381-22.69395199°80km/h8703m7.6m/s-47.5°C39.6%0hPa0V00:00:0000:00:0000:00:00
DL9RDZ-12026-08-31 11:27:2963.91587-22.69227200°75km/h8640m4.6m/s-47.3°C35.1%0hPa0V00:00:0000:00:0000:00:00
DL9RDZ-12026-08-31 11:27:1963.91778-22.69095197°75km/h8590m4.7m/s-47.1°C33.8%0hPa0V00:00:0000:00:0000:00:00
DL9RDZ-12026-08-31 11:27:0863.91989-22.68969196°75km/h8532m6.3m/s-46.6°C31.4%0hPa0V00:00:0000:00:0000:00:00
DL9RDZ-12026-08-31 11:26:5863.92203-22.68833196°82km/h8472m3.7m/s-46.2°C26.8%0hPa0V00:00:0000:00:0000:00:00
DL9RDZ-12026-08-31 11:26:4763.92400-22.68721191°82km/h8421m5.3m/s-45.9°C25.1%0hPa0V00:00:0000:00:0000:00:00
DL9RDZ-12026-08-31 11:26:3663.92609-22.68640193°73km/h8358m6.7m/s-45.4°C25.1%0hPa0V00:00:0000:00:0000:00:00
DL9RDZ-12026-08-31 11:26:2663.92815-22.68532194°78km/h8304m6.0m/s-45.5°C27.5%0hPa0V00:00:0000:00:0000:00:00
DL9RDZ-12026-08-31 11:26:1463.92997-22.68430194°68km/h8233m4.2m/s-45.1°C27.6%0hPa0V00:00:0000:00:0000:00:00
DL9RDZ-12026-08-31 11:26:0363.93186-22.68347190°73km/h8160m4.2m/s-44.8°C26.3%0hPa0V00:00:0000:00:0000:00:00
DL9RDZ-12026-08-31 11:25:5463.93349-22.68283192°64km/h8101m6.8m/s-44.6°C25.7%0hPa0V00:00:0000:00:0000:00:00
DL9RDZ-12026-08-31 11:25:4263.93513-22.68208195°58km/h8046m4.4m/s-44.3°C24.7%0hPa0V00:00:0000:00:0000:00:00
DL9RDZ-12026-08-31 11:25:1563.93899-22.68092198°60km/h7894m4.1m/s-44.0°C24.9%0hPa0V00:00:0000:00:0000:00:00
DL9RDZ-12026-08-31 11:25:0463.94053-22.68021189°49km/h7824m4.8m/s-43.7°C25.0%0hPa0V00:00:0000:00:0000:00:00
DL9RDZ-12026-08-31 11:24:5363.94204-22.67974191°46km/h7760m5.5m/s-43.3°C23.9%0hPa0V00:00:0000:00:0000:00:00
DL9RDZ-12026-08-31 11:24:4263.94347-22.67925192°53km/h7694m4.1m/s-42.8°C23.4%0hPa0V00:00:0000:00:0000:00:00
DL9RDZ-12026-08-31 11:24:3263.94475-22.67873193°47km/h7650m4.7m/s-42.6°C24.6%0hPa0V00:00:0000:00:0000:00:00
DL9RDZ-12026-08-31 11:24:2263.94601-22.67823193°47km/h7604m4.5m/s-42.4°C27.2%0hPa0V00:00:0000:00:0000:00:00
DL9RDZ-12026-08-31 11:24:1263.94719-22.67781187°46km/h7559m5.1m/s-42.2°C29.7%0hPa0V00:00:0000:00:0000:00:00
DL9RDZ-12026-08-31 11:23:5463.94925-22.67734188°49km/h7451m4.8m/s-41.5°C27.5%0hPa0V00:00:0000:00:0000:00:00
DL9RDZ-12026-08-31 11:23:1663.95300-22.67579188°37km/h7251m7.3m/s-40.2°C21.9%0hPa0V00:00:0000:00:0000:00:00
DL9RDZ-12026-08-31 11:23:0463.95389-22.67609159°31km/h7191m3.8m/s-39.9°C22.1%0hPa0V00:00:0000:00:0000:00:00
DL9RDZ-12026-08-31 11:22:5463.95456-22.67645156°33km/h7131m5.4m/s-39.7°C25.6%0hPa0V00:00:0000:00:0000:00:00
DL9RDZ-12026-08-31 11:22:4363.95521-22.67701171°16km/h7064m6.8m/s-39.3°C36.0%0hPa0V00:00:0000:00:0000:00:00
DL9RDZ-12026-08-31 11:22:3363.95569-22.67714164°18km/h7005m5.1m/s-39.0°C38.5%0hPa0V00:00:0000:00:0000:00:00
DL9RDZ-12026-08-31 11:22:2263.95601-22.67763167°22km/h6941m4.3m/s-38.4°C37.3%0hPa0V00:00:0000:00:0000:00:00
DL9RDZ-12026-08-31 11:22:1363.95643-22.67795162°16km/h6881m4.2m/s-38.2°C39.2%0hPa0V00:00:0000:00:0000:00:00
DL9RDZ-12026-08-31 11:21:4563.95727-22.67862164°16km/h6725m4.2m/s-37.3°C52.8%0hPa0V00:00:0000:00:0000:00:00
DL9RDZ-12026-08-31 11:21:3563.95754-22.67913144°7km/h6668m3.9m/s-36.8°C55.4%0hPa0V00:00:0000:00:0000:00:00
DL9RDZ-12026-08-31 11:21:2563.95763-22.67967142°18km/h6611m4.2m/s-36.5°C56.2%0hPa0V00:00:0000:00:0000:00:00
DL9RDZ-12026-08-31 11:21:1463.95783-22.68048133°5km/h6550m7.2m/s-36.0°C55.5%0hPa0V00:00:0000:00:0000:00:00
DL9RDZ-12026-08-31 11:21:0463.95793-22.6810879°7km/h6485m6.3m/s-35.4°C53.7%0hPa0V00:00:0000:00:0000:00:00
DL9RDZ-12026-08-31 11:20:5463.95808-22.68155109°11km/h6425m7.3m/s-34.9°C50.4%0hPa0V00:00:0000:00:0000:00:00
DL9RDZ-12026-08-31 11:20:4363.95822-22.68221140°7km/h6368m8.4m/s-34.5°C52.3%0hPa0V00:00:0000:00:0000:00:00
DL9RDZ-12026-08-31 11:20:3363.95835-22.6827366°9km/h6312m5.3m/s-34.0°C53.9%0hPa0V00:00:0000:00:0000:00:00
DL9RDZ-12026-08-31 11:20:2263.95830-22.6833626°7km/h6244m4.4m/s-33.4°C52.1%0hPa0V00:00:0000:00:0000:00:00
DL9RDZ-12026-08-31 11:20:1263.95812-22.6840385°18km/h6187m7.8m/s-32.9°C49.0%0hPa0V00:00:0000:00:0000:00:00
DL9RDZ-12026-08-31 11:20:0163.95796-22.6848871°20km/h6132m3.6m/s-32.4°C48.6%0hPa0V00:00:0000:00:0000:00:00
DL9RDZ-12026-08-31 11:19:5063.95776-22.6855677°11km/h6077m5.0m/s-31.9°C46.7%0hPa0V00:00:0000:00:0000:00:00
DL9RDZ-12026-08-31 11:19:3963.95761-22.6866463°20km/h6022m5.6m/s-31.4°C43.8%0hPa0V00:00:0000:00:0000:00:00
DL9RDZ-12026-08-31 11:19:2963.95757-22.6872438°11km/h5971m6.5m/s-31.0°C43.5%0hPa0V00:00:0000:00:0000:00:00
DL9RDZ-12026-08-31 11:19:2063.95736-22.6877170°11km/h5915m5.0m/s-30.6°C43.8%0hPa0V00:00:0000:00:0000:00:00
DL9RDZ-12026-08-31 11:19:0863.95715-22.68876360°11km/h5857m5.5m/s-30.0°C43.6%0hPa0V00:00:0000:00:0000:00:00
DL9RDZ-12026-08-31 11:18:5763.95705-22.6892141°11km/h5797m3.2m/s-29.5°C41.1%0hPa0V00:00:0000:00:0000:00:00
DL9RDZ-12026-08-31 11:18:4663.95714-22.68988104°16km/h5739m6.7m/s-29.2°C42.1%0hPa0V00:00:0000:00:0000:00:00
DL9RDZ-12026-08-31 11:18:3563.95701-22.6904491°11km/h5667m6.8m/s-28.8°C41.7%0hPa0V00:00:0000:00:0000:00:00
DL9RDZ-12026-08-31 11:18:2563.95709-22.6908081°7km/h5622m4.6m/s-28.4°C38.5%0hPa0V00:00:0000:00:0000:00:00
DL9RDZ-12026-08-31 11:18:1563.95729-22.69147161°11km/h5560m6.0m/s-28.1°C46.1%0hPa0V00:00:0000:00:0000:00:00
DL9RDZ-12026-08-31 11:18:0563.95751-22.69186219°5km/h5501m6.2m/s-27.8°C49.7%0hPa0V00:00:0000:00:0000:00:00
DL9RDZ-12026-08-31 11:17:5463.95766-22.69215123°13km/h5443m6.3m/s-27.3°C49.8%0hPa0V00:00:0000:00:0000:00:00
DL9RDZ-12026-08-31 11:17:4363.95787-22.69261140°15km/h5383m6.7m/s-26.8°C48.8%0hPa0V00:00:0000:00:0000:00:00
DL9RDZ-12026-08-31 11:17:3263.95810-22.6932499°15km/h5332m8.2m/s-26.4°C49.3%0hPa0V00:00:0000:00:0000:00:00
DL9RDZ-12026-08-31 11:16:3963.95917-22.69423167°16km/h5039m3.7m/s-24.2°C43.6%0hPa0V00:00:0000:00:0000:00:00
DL9RDZ-12026-08-31 11:16:2863.95937-22.69457353°5km/h4975m5.5m/s-23.7°C36.9%0hPa0V00:00:0000:00:0000:00:00
DL9RDZ-12026-08-31 11:16:1763.95956-22.69461127°11km/h4917m5.6m/s-23.3°C36.7%0hPa0V00:00:0000:00:0000:00:00
DL9RDZ-12026-08-31 11:16:0663.95984-22.69476175°16km/h4862m6.6m/s-22.9°C38.7%0hPa0V00:00:0000:00:0000:00:00
DL9RDZ-12026-08-31 11:15:5663.96013-22.69493141°7km/h4806m6.7m/s-22.8°C44.2%0hPa0V00:00:0000:00:0000:00:00
DL9RDZ-12026-08-31 11:15:4663.96032-22.69522133°13km/h4761m3.7m/s-22.5°C78.0%0hPa0V00:00:0000:00:0000:00:00
DL9RDZ-12026-08-31 11:15:3563.96083-22.69582127°20km/h4698m6.1m/s-22.0°C77.4%0hPa0V00:00:0000:00:0000:00:00
DL9RDZ-12026-08-31 11:15:2463.96085-22.69667103°11km/h4640m4.6m/s-21.4°C76.4%0hPa0V00:00:0000:00:0000:00:00
DL9RDZ-12026-08-31 11:15:1363.96117-22.69704131°22km/h4581m6.7m/s-20.9°C74.1%0hPa0V00:00:0000:00:0000:00:00
DL9RDZ-12026-08-31 11:14:5263.96167-22.69808183°16km/h4460m5.3m/s-20.1°C80.3%0hPa0V00:00:0000:00:0000:00:00
DL9RDZ-12026-08-31 11:14:4163.96205-22.69835172°15km/h4389m5.0m/s-19.6°C81.1%0hPa0V00:00:0000:00:0000:00:00
DL9RDZ-12026-08-31 11:14:1463.96294-22.69943172°22km/h4240m5.0m/s-18.7°C70.4%0hPa0V00:00:0000:00:0000:00:00
DL9RDZ-12026-08-31 11:14:0463.96335-22.69912199°22km/h4177m6.8m/s-18.1°C68.1%0hPa0V00:00:0000:00:0000:00:00
DL9RDZ-12026-08-31 11:13:5363.96371-22.69934159°16km/h4116m3.2m/s-17.8°C74.8%0hPa0V00:00:0000:00:0000:00:00
DL9RDZ-12026-08-31 11:13:4263.96408-22.69903274°15km/h4053m7.1m/s-17.5°C81.5%0hPa0V00:00:0000:00:0000:00:00
DL9RDZ-12026-08-31 11:13:3163.96427-22.69863192°7km/h3985m4.2m/s-16.9°C80.4%0hPa0V00:00:0000:00:0000:00:00
DL9RDZ-12026-08-31 11:13:2063.96433-22.69806349°5km/h3923m5.3m/s-16.6°C82.3%0hPa0V00:00:0000:00:0000:00:00
DL9RDZ-12026-08-31 11:13:1063.96422-22.69757191°9km/h3860m7.2m/s-16.0°C78.9%0hPa0V00:00:0000:00:0000:00:00
DL9RDZ-12026-08-31 11:12:5963.96429-22.69714220°9km/h3793m5.5m/s-15.3°C74.8%0hPa0V00:00:0000:00:0000:00:00
DL9RDZ-12026-08-31 11:12:4863.96441-22.69643186°11km/h3728m8.8m/s-14.8°C69.0%0hPa0V00:00:0000:00:0000:00:00
DL9RDZ-12026-08-31 11:12:3763.96457-22.69564241°15km/h3664m5.8m/s-14.2°C67.7%0hPa0V00:00:0000:00:0000:00:00
DL9RDZ-12026-08-31 11:12:2763.96484-22.69533285°7km/h3620m5.6m/s-13.8°C65.2%0hPa0V00:00:0000:00:0000:00:00
DL9RDZ-12026-08-31 11:12:1763.96498-22.69475259°15km/h3565m4.4m/s-13.3°C64.8%0hPa0V00:00:0000:00:0000:00:00
DL9RDZ-12026-08-31 11:12:0763.96515-22.69423203°22km/h3509m4.6m/s-13.0°C54.8%0hPa0V00:00:0000:00:0000:00:00
DL9RDZ-12026-08-31 11:11:5663.96555-22.69370214°11km/h3454m3.8m/s-12.6°C49.9%0hPa0V00:00:0000:00:0000:00:00
DL9RDZ-12026-08-31 11:11:4563.96582-22.69296242°27km/h3394m8.1m/s-12.2°C49.7%0hPa0V00:00:0000:00:0000:00:00
DL9RDZ-12026-08-31 11:11:3563.96608-22.69174240°31km/h3336m8.3m/s-11.8°C51.7%0hPa0V00:00:0000:00:0000:00:00
DL9RDZ-12026-08-31 11:11:2463.96614-22.69045277°22km/h3272m5.6m/s-11.5°C55.5%0hPa0V00:00:0000:00:0000:00:00
DL9RDZ-12026-08-31 11:11:1363.96628-22.68969184°13km/h3214m6.8m/s-11.4°C61.1%0hPa0V00:00:0000:00:0000:00:00
DL9RDZ-12026-08-31 11:11:0363.96643-22.68899277°15km/h3154m6.1m/s-11.4°C72.1%0hPa0V00:00:0000:00:0000:00:00
DL9RDZ-12026-08-31 11:10:5263.96656-22.68806249°16km/h3095m6.9m/s-11.1°C73.5%0hPa0V00:00:0000:00:0000:00:00
DL9RDZ-12026-08-31 11:10:4263.96672-22.68724209°18km/h3031m5.4m/s-10.6°C76.2%0hPa0V00:00:0000:00:0000:00:00
DL9RDZ-12026-08-31 11:10:3263.96710-22.68586265°24km/h2980m6.9m/s-10.2°C75.0%0hPa0V00:00:0000:00:0000:00:00
DL9RDZ-12026-08-31 11:10:2263.96733-22.68518297°15km/h2924m4.2m/s-9.7°C81.2%0hPa0V00:00:0000:00:0000:00:00
DL9RDZ-12026-08-31 11:10:0163.96747-22.68364269°16km/h2814m5.1m/s-9.0°C80.4%0hPa0V00:00:0000:00:0000:00:00
DL9RDZ-12026-08-31 11:09:5063.96768-22.68285261°15km/h2757m4.5m/s-8.5°C79.1%0hPa0V00:00:0000:00:0000:00:00
DL9RDZ-12026-08-31 11:09:4063.96783-22.68214213°15km/h2699m5.5m/s-8.0°C77.5%0hPa0V00:00:0000:00:0000:00:00
DL9RDZ-12026-08-31 11:09:3063.96810-22.68140256°18km/h2645m6.6m/s-7.5°C0%0hPa0V00:00:0000:00:0000:00:00
DL9RDZ-12026-08-31 11:09:1963.96799-22.68036249°7km/h2577m5.7m/s-7.1°C0%0hPa0V00:00:0000:00:0000:00:00
DL9RDZ-12026-08-31 11:09:0863.96798-22.67937266°29km/h2513m4.7m/s-6.9°C0%0hPa0V00:00:0000:00:0000:00:00
DL9RDZ-12026-08-31 11:08:5863.96800-22.67807271°18km/h2456m5.1m/s-6.5°C0%0hPa0V00:00:0000:00:0000:00:00
DL9RDZ-12026-08-31 11:08:4763.96799-22.67649286°31km/h2397m4.9m/s-6.1°C0%0hPa0V00:00:0000:00:0000:00:00
DL9RDZ-12026-08-31 11:08:3563.96797-22.67470272°29km/h2328m4.4m/s0°C0%0hPa0V00:00:0000:00:0000:00:00
DL9RDZ-12026-08-31 11:08:2463.96807-22.67327270°33km/h2272m5.7m/s0°C0%0hPa0V00:00:0000:00:0000:00:00
DL9RDZ-12026-08-31 11:08:1363.96812-22.67184257°13km/h2217m3.2m/s0°C0%0hPa0V00:00:0000:00:0000:00:00
DL9RDZ-12026-08-31 11:08:0063.96802-22.67006242°22km/h2138m4.9m/s0°C0%0hPa0V00:00:0000:00:0000:00:00
DL9RDZ-12026-08-31 11:06:0763.96869-22.65260264°35km/h1504m5.1m/s0°C0%0hPa0V00:00:0000:00:0000:00:00
DL9RDZ-12026-08-31 11:05:4963.96902-22.64934262°26km/h1406m6.0m/s0°C0%0hPa0V00:00:0000:00:0000:00:00
DL9RDZ-12026-08-31 11:05:3763.96931-22.64709252°27km/h1342m6.2m/s0°C0%0hPa0V00:00:0000:00:0000:00:00
DL9RDZ-12026-08-31 11:05:2663.96953-22.64541256°35km/h1284m5.5m/s0°C0%0hPa0V00:00:0000:00:0000:00:00


GPX KML Map

© wettersonde.net (DO2JMG) - 2026  -  -